createdAt,value
2019-01-05T00:02:26.637Z,2.90
2019-01-05T00:07:22.899Z,2.90
2019-01-05T00:12:30.841Z,3.00
2019-01-05T00:17:25.655Z,3.00
2019-01-05T00:22:25.225Z,3.00
2019-01-05T00:27:27.899Z,3.00
2019-01-05T00:32:27.711Z,3.00
2019-01-05T00:37:24.077Z,3.00
2019-01-05T00:42:24.123Z,2.80
2019-01-05T00:47:23.362Z,2.70
2019-01-05T00:52:35.503Z,2.70
2019-01-05T00:57:50.855Z,2.70
2019-01-05T01:02:56.369Z,2.60
2019-01-05T01:07:55.410Z,2.60
2019-01-05T01:12:54.513Z,2.60
2019-01-05T01:18:00.214Z,2.70
2019-01-05T01:23:00.558Z,2.70
2019-01-05T01:28:13.090Z,2.80
2019-01-05T01:33:13.190Z,2.80
2019-01-05T01:38:25.385Z,2.80
2019-01-05T01:43:30.496Z,2.80
2019-01-05T01:48:35.794Z,2.80
2019-01-05T01:53:32.557Z,2.70
2019-01-05T01:58:35.866Z,2.70
2019-01-05T02:03:32.262Z,2.60
2019-01-05T02:08:44.311Z,2.60
2019-01-05T02:13:44.460Z,2.60
2019-01-05T02:18:58.222Z,2.70
2019-01-05T02:24:22.726Z,2.60
2019-01-05T02:30:06.116Z,2.60
2019-01-05T02:35:31.645Z,2.50
2019-01-05T02:41:29.574Z,2.60
2019-01-05T02:46:48.831Z,2.60
2019-01-05T02:52:37.304Z,2.70
2019-01-05T02:57:55.679Z,2.70
2019-01-05T03:03:30.741Z,2.80
2019-01-05T03:08:51.453Z,2.80
2019-01-05T03:14:25.094Z,2.80
2019-01-05T03:19:41.838Z,2.80
2019-01-05T03:25:20.896Z,2.80
2019-01-05T03:30:48.165Z,2.70
2019-01-05T03:36:21.108Z,2.70
2019-01-05T03:42:21.499Z,2.70
2019-01-05T03:47:47.260Z,2.70
2019-01-05T03:53:13.180Z,2.70
2019-01-05T03:58:49.383Z,2.70
2019-01-05T04:04:21.517Z,2.70
2019-01-05T04:10:00.743Z,2.80
2019-01-05T04:15:44.236Z,2.90
2019-01-05T04:21:06.520Z,2.70
2019-01-05T04:26:36.138Z,2.70
2019-01-05T04:31:58.383Z,2.70
2019-01-05T04:37:20.019Z,2.60
2019-01-05T04:43:12.686Z,2.60
2019-01-05T04:48:47.084Z,2.60
2019-01-05T04:54:02.306Z,2.60
2019-01-05T04:59:25.191Z,2.50
2019-01-05T05:05:05.994Z,2.50
2019-01-05T05:10:43.772Z,2.50
2019-01-05T05:16:22.808Z,2.50
2019-01-05T05:22:02.842Z,2.40
2019-01-05T05:27:54.206Z,2.50
2019-01-05T05:33:21.692Z,2.50
2019-01-05T05:39:00.749Z,2.50
2019-01-05T05:44:25.101Z,2.60
2019-01-05T05:50:05.569Z,2.60
2019-01-05T05:55:30.109Z,2.80
2019-01-05T06:01:06.277Z,2.90
2019-01-05T06:06:30.834Z,2.90
2019-01-05T06:12:26.982Z,2.70
2019-01-05T06:17:43.585Z,2.80
2019-01-05T06:23:22.399Z,2.70
2019-01-05T06:29:02.823Z,2.60
2019-01-05T06:34:22.727Z,2.50
2019-01-05T06:40:05.167Z,2.40
2019-01-05T06:45:47.186Z,2.40
2019-01-05T06:51:18.365Z,2.50
2019-01-05T06:57:00.937Z,2.40
2019-01-05T07:02:31.128Z,2.30
2019-01-05T07:08:37.274Z,2.10
2019-01-05T07:14:04.791Z,2.10
2019-01-05T07:19:32.227Z,2.10
2019-01-05T07:25:13.188Z,2.20
2019-01-05T07:31:08.686Z,2.10
2019-01-05T07:36:50.657Z,2.10
2019-01-05T07:42:52.186Z,2.20
2019-01-05T07:49:00.373Z,2.30
2019-01-05T07:54:24.602Z,2.40
2019-01-05T08:00:07.016Z,2.20
2019-01-05T08:05:45.836Z,2.10
2019-01-05T08:11:10.802Z,2.10
2019-01-05T08:16:51.722Z,2.30
2019-01-05T08:22:26.776Z,2.40
2019-01-05T08:28:17.846Z,2.30
2019-01-05T08:34:21.424Z,2.10
2019-01-05T08:40:06.433Z,2.00
2019-01-05T08:45:51.818Z,2.00
2019-01-05T08:51:16.369Z,2.10
2019-01-05T08:57:05.896Z,2.00
2019-01-05T09:02:27.604Z,2.10
2019-01-05T09:08:01.758Z,2.10
2019-01-05T09:13:19.833Z,2.20
2019-01-05T09:18:52.685Z,2.20
2019-01-05T09:24:39.771Z,2.30
2019-01-05T09:30:11.750Z,2.50
2019-01-05T09:35:54.913Z,2.60
2019-01-05T09:41:50.687Z,2.50
2019-01-05T09:47:12.178Z,2.70
2019-01-05T09:52:51.175Z,2.50
2019-01-05T09:58:45.783Z,2.50
2019-01-05T10:04:16.049Z,2.50
2019-01-05T10:10:13.574Z,2.70
2019-01-05T10:15:37.750Z,2.70
2019-01-05T10:21:15.353Z,2.50
2019-01-05T10:27:00.555Z,2.40
2019-01-05T10:32:33.548Z,2.40
2019-01-05T10:38:02.797Z,2.30
2019-01-05T10:43:23.255Z,2.30
2019-01-05T10:49:04.908Z,2.30
2019-01-05T10:54:44.057Z,2.30
2019-01-05T11:00:11.132Z,2.40
2019-01-05T11:05:35.428Z,2.40
2019-01-05T11:11:28.092Z,2.40
2019-01-05T11:16:47.496Z,2.40
2019-01-05T11:22:06.975Z,2.40
2019-01-05T11:27:49.324Z,2.40
2019-01-05T11:33:16.712Z,2.30
2019-01-05T11:38:35.178Z,2.30
2019-01-05T11:43:44.726Z,2.40
2019-01-05T11:48:57.068Z,2.40
2019-01-05T11:54:34.725Z,2.40
2019-01-05T12:00:21.234Z,2.60
2019-01-05T12:05:46.985Z,2.60
2019-01-05T12:11:19.055Z,2.60
2019-01-05T12:17:13.279Z,2.70
2019-01-05T12:22:49.374Z,2.60
2019-01-05T12:27:58.958Z,2.60
2019-01-05T12:33:48.819Z,2.50
2019-01-05T12:39:31.507Z,2.50
2019-01-05T12:44:43.699Z,2.60
2019-01-05T12:50:02.120Z,2.80
2019-01-05T12:55:51.504Z,2.70
2019-01-05T13:01:54.912Z,2.70
2019-01-05T13:07:34.612Z,2.70
2019-01-05T13:13:22.037Z,2.80
2019-01-05T13:18:37.049Z,2.80
2019-01-05T13:24:30.258Z,2.80
2019-01-05T13:30:10.684Z,2.80
2019-01-05T13:35:42.541Z,2.70
2019-01-05T13:41:02.094Z,2.70
2019-01-05T13:46:23.360Z,2.70
2019-01-05T13:51:29.885Z,2.70
2019-01-05T13:56:26.673Z,2.60
2019-01-05T14:01:37.751Z,2.60
2019-01-05T14:06:34.015Z,2.70
2019-01-05T14:11:42.270Z,2.70
2019-01-05T14:16:44.322Z,2.70
2019-01-05T14:21:55.570Z,2.60
2019-01-05T14:26:51.792Z,2.60
2019-01-05T14:31:53.606Z,2.60
2019-01-05T14:36:59.491Z,2.60
2019-01-05T14:42:07.346Z,2.60
2019-01-05T14:47:18.683Z,2.60
2019-01-05T14:52:20.602Z,2.50
2019-01-05T14:57:32.449Z,2.60
2019-01-05T15:02:40.486Z,2.70
2019-01-05T15:07:36.773Z,2.70
2019-01-05T15:12:48.038Z,2.70
2019-01-05T15:18:00.150Z,2.80
2019-01-05T15:22:54.538Z,2.70
2019-01-05T15:27:50.765Z,2.80
2019-01-05T15:32:52.791Z,2.80
2019-01-05T15:37:54.682Z,2.70
2019-01-05T15:42:50.921Z,2.70
2019-01-05T15:47:47.158Z,2.60
2019-01-05T15:52:44.242Z,2.60
2019-01-05T15:57:56.056Z,2.60
2019-01-05T16:02:50.447Z,2.80
2019-01-05T16:10:35.869Z,2.70
2019-01-05T16:15:34.864Z,2.90
2019-01-05T16:20:37.976Z,2.80
2019-01-05T16:25:34.229Z,2.80
2019-01-05T16:30:42.508Z,2.80
2019-01-05T16:35:38.770Z,2.80
2019-01-05T16:40:50.994Z,2.80
2019-01-05T16:45:49.653Z,2.80
2019-01-05T16:50:52.097Z,2.80
2019-01-05T16:55:54.896Z,2.80
2019-01-05T17:00:56.587Z,2.80
2019-01-05T17:06:09.044Z,2.90
2019-01-05T17:11:23.380Z,3.00
2019-01-05T17:16:19.623Z,3.10
2019-01-05T17:21:30.425Z,3.10
2019-01-05T17:26:35.942Z,3.10
2019-01-05T17:31:32.210Z,3.10
2019-01-05T17:36:26.566Z,3.00
2019-01-05T17:41:28.552Z,2.90
2019-01-05T17:46:27.205Z,2.90
2019-01-05T17:51:25.875Z,2.90
2019-01-05T17:56:22.169Z,2.90
2019-01-05T18:01:36.592Z,2.90
2019-01-05T18:06:33.542Z,2.90
2019-01-05T18:11:33.027Z,2.90
2019-01-05T18:16:31.991Z,2.90
2019-01-05T18:21:28.249Z,2.90
2019-01-05T18:26:39.154Z,2.90
2019-01-05T18:31:51.459Z,2.90
2019-01-05T18:36:50.433Z,2.90
2019-01-05T18:41:58.395Z,2.90
2019-01-05T18:47:10.792Z,2.90
2019-01-05T18:52:24.963Z,2.90
2019-01-05T18:57:24.146Z,2.90
2019-01-05T19:02:32.380Z,2.90
2019-01-05T19:07:31.480Z,2.90
2019-01-05T19:12:27.825Z,2.90
2019-01-05T19:17:42.402Z,2.90
2019-01-05T19:22:47.323Z,3.00
2019-01-05T19:27:59.574Z,3.00
2019-01-05T19:33:08.074Z,3.00
2019-01-05T19:38:19.557Z,3.00
2019-01-05T19:43:16.741Z,3.00
2019-01-05T19:48:18.950Z,3.10
2019-01-05T19:53:18.186Z,3.10
2019-01-05T19:58:17.224Z,3.10
2019-01-05T20:03:29.768Z,3.20
2019-01-05T20:08:29.753Z,3.10
2019-01-05T20:13:31.701Z,3.10
2019-01-05T20:18:31.769Z,3.00
2019-01-05T20:23:43.745Z,3.10
2019-01-05T20:28:38.137Z,3.00
2019-01-05T20:33:47.412Z,3.10
2019-01-05T20:38:58.899Z,3.10
2019-01-05T20:43:57.874Z,3.10
2019-01-05T20:49:10.383Z,3.20
2019-01-05T20:54:09.343Z,3.20
2019-01-05T20:59:14.449Z,3.20
2019-01-05T21:04:22.676Z,3.20
2019-01-05T21:09:30.830Z,3.20
2019-01-05T21:14:29.777Z,3.20
2019-01-05T21:19:26.043Z,3.20
2019-01-05T21:24:33.976Z,3.10
2019-01-05T21:29:45.512Z,3.10
2019-01-05T21:34:57.429Z,3.20
2019-01-05T21:40:08.722Z,3.30
2019-01-05T21:45:20.776Z,3.30
2019-01-05T21:50:17.005Z,3.30
2019-01-05T21:55:29.286Z,3.20
2019-01-05T22:00:41.857Z,3.30
2019-01-05T22:05:38.126Z,3.30
2019-01-05T22:10:50.509Z,3.30
2019-01-05T22:15:46.782Z,3.30
2019-01-05T22:20:45.926Z,3.40
2019-01-05T22:25:58.509Z,3.30
2019-01-05T22:30:54.782Z,3.40
2019-01-05T22:35:51.116Z,3.60
2019-01-05T22:40:47.372Z,3.60
2019-01-05T22:45:46.127Z,3.60
2019-01-05T22:50:47.813Z,3.50
2019-01-05T22:56:00.265Z,3.50
2019-01-05T23:01:02.376Z,3.50
2019-01-05T23:06:07.629Z,3.60
2019-01-05T23:11:19.057Z,3.60
2019-01-05T23:16:15.281Z,3.70
2019-01-05T23:21:14.310Z,3.70
2019-01-05T23:26:13.275Z,3.70
2019-01-05T23:31:22.671Z,3.70
2019-01-05T23:36:35.804Z,3.80
2019-01-05T23:41:32.662Z,3.90
2019-01-05T23:46:44.649Z,3.80
2019-01-05T23:51:43.847Z,3.90
2019-01-05T23:56:40.100Z,3.90
